createdAt,value
2019-03-17T00:00:09.685Z,29.45
2019-03-17T00:02:40.002Z,31.90
2019-03-17T00:05:08.966Z,32.13
2019-03-17T00:07:38.082Z,33.50
2019-03-17T00:10:07.048Z,35.08
2019-03-17T00:12:35.992Z,32.35
2019-03-17T00:15:06.405Z,34.48
2019-03-17T00:17:37.072Z,33.48
2019-03-17T00:20:06.663Z,32.58
2019-03-17T00:22:35.348Z,33.35
2019-03-17T00:25:09.747Z,33.35
2019-03-17T00:27:35.243Z,34.67
2019-03-17T00:30:04.804Z,35.10
2019-03-17T00:32:33.737Z,35.63
2019-03-17T00:35:02.813Z,35.70
2019-03-17T00:37:31.490Z,37.03
2019-03-17T00:40:00.475Z,35.98
2019-03-17T00:42:30.146Z,35.03
2019-03-17T00:44:59.101Z,38.00
2019-03-17T00:47:28.277Z,36.30
2019-03-17T00:49:56.975Z,37.78
2019-03-17T00:52:25.836Z,36.88
2019-03-17T00:54:54.598Z,36.80
2019-03-17T00:57:23.531Z,36.13
2019-03-17T00:59:52.104Z,35.90
2019-03-17T01:02:20.906Z,37.65
2019-03-17T01:04:56.259Z,37.80
2019-03-17T01:07:20.244Z,35.65
2019-03-17T01:09:49.066Z,37.15
2019-03-17T01:12:17.787Z,38.80
2019-03-17T01:14:46.825Z,38.08
2019-03-17T01:17:15.661Z,36.48
2019-03-17T01:19:44.721Z,37.45
2019-03-17T01:22:13.826Z,38.42
2019-03-17T01:24:42.465Z,34.88
2019-03-17T01:27:11.324Z,36.23
2019-03-17T01:29:40.038Z,38.25
2019-03-17T01:32:08.969Z,36.38
2019-03-17T01:34:38.130Z,35.73
2019-03-17T01:37:07.270Z,36.05
2019-03-17T01:39:36.574Z,36.98
2019-03-17T01:42:05.613Z,37.08
2019-03-17T01:44:35.586Z,37.00
2019-03-17T01:47:04.549Z,34.95
2019-03-17T01:49:33.571Z,35.08
2019-03-17T01:52:02.229Z,32.78
2019-03-17T01:54:31.203Z,32.53
2019-03-17T01:56:59.976Z,30.82
2019-03-17T01:59:30.382Z,30.97
2019-03-17T02:01:59.182Z,29.23
2019-03-17T02:04:28.242Z,31.33
2019-03-17T02:06:57.194Z,29.95
2019-03-17T02:09:25.988Z,35.90
2019-03-17T02:11:55.389Z,40.55
2019-03-17T02:14:24.272Z,39.80
2019-03-17T02:16:53.124Z,39.88
2019-03-17T02:19:22.383Z,39.08
2019-03-17T02:21:51.272Z,41.70
2019-03-17T02:24:20.300Z,35.43
2019-03-17T02:26:50.383Z,35.70
2019-03-17T02:29:19.315Z,43.35
2019-03-17T02:31:48.254Z,43.05
2019-03-17T02:34:17.209Z,41.60
2019-03-17T02:36:45.806Z,39.33
2019-03-17T02:39:14.686Z,36.60
2019-03-17T02:41:43.578Z,37.25
2019-03-17T02:44:12.562Z,35.90
2019-03-17T02:46:41.401Z,36.80
2019-03-17T02:49:10.143Z,34.55
2019-03-17T02:51:38.994Z,33.70
2019-03-17T02:54:07.994Z,34.03
2019-03-17T02:56:36.709Z,34.98
2019-03-17T02:59:05.962Z,34.98
2019-03-17T03:01:34.793Z,32.28
2019-03-17T03:04:03.395Z,34.60
2019-03-17T03:06:32.445Z,32.88
2019-03-17T03:09:01.573Z,33.25
2019-03-17T03:11:31.849Z,30.95
2019-03-17T03:14:00.662Z,31.57
2019-03-17T03:16:29.527Z,33.58
2019-03-17T03:18:58.639Z,34.10
2019-03-17T03:21:27.522Z,30.55
2019-03-17T03:23:56.780Z,32.08
2019-03-17T03:26:25.865Z,31.50
2019-03-17T03:28:54.720Z,30.62
2019-03-17T03:31:23.672Z,30.40
2019-03-17T03:33:52.562Z,31.02
2019-03-17T03:36:21.529Z,30.60
2019-03-17T03:38:51.603Z,32.08
2019-03-17T03:41:20.339Z,29.25
2019-03-17T03:43:49.271Z,29.32
2019-03-17T03:46:18.081Z,28.83
2019-03-17T03:48:46.975Z,28.95
2019-03-17T03:51:15.652Z,28.12
2019-03-17T03:53:44.522Z,27.98
2019-03-17T03:56:13.445Z,29.55
2019-03-17T03:58:42.743Z,27.15
2019-03-17T04:01:11.448Z,29.02
2019-03-17T04:03:40.513Z,27.93
2019-03-17T04:06:25.266Z,26.12
2019-03-17T04:08:39.778Z,27.17
2019-03-17T04:11:08.794Z,24.50
2019-03-17T04:13:37.862Z,23.52
2019-03-17T04:16:06.634Z,24.07
2019-03-17T04:18:35.553Z,24.70
2019-03-17T04:21:04.256Z,23.90
2019-03-17T04:23:33.375Z,30.43
2019-03-17T04:26:02.505Z,28.12
2019-03-17T04:28:31.549Z,25.70
2019-03-17T04:31:00.818Z,24.18
2019-03-17T04:33:30.093Z,22.82
2019-03-17T04:35:59.013Z,21.40
2019-03-17T04:38:28.234Z,19.87
2019-03-17T04:40:57.188Z,22.73
2019-03-17T04:43:25.879Z,26.75
2019-03-17T04:45:55.045Z,20.97
2019-03-17T04:48:23.790Z,23.92
2019-03-17T04:50:52.654Z,25.43
2019-03-17T04:53:21.632Z,23.10
2019-03-17T04:55:50.784Z,23.52
2019-03-17T04:58:19.794Z,21.42
2019-03-17T05:00:48.843Z,23.30
2019-03-17T05:03:17.621Z,25.97
2019-03-17T05:05:46.811Z,22.50
2019-03-17T05:08:15.691Z,18.50
2019-03-17T05:10:44.472Z,17.02
2019-03-17T05:13:13.278Z,17.20
2019-03-17T05:15:42.317Z,17.92
2019-03-17T05:18:11.127Z,16.87
2019-03-17T05:20:40.161Z,15.28
2019-03-17T05:23:11.761Z,15.72
2019-03-17T05:25:40.693Z,14.58
2019-03-17T05:28:09.766Z,14.83
2019-03-17T05:30:38.897Z,13.55
2019-03-17T05:33:07.845Z,13.95
2019-03-17T05:35:36.636Z,14.53
2019-03-17T05:38:05.383Z,14.50
2019-03-17T05:40:34.132Z,13.48
2019-03-17T05:43:02.951Z,12.65
2019-03-17T05:45:31.561Z,12.65
2019-03-17T05:48:00.384Z,12.37
2019-03-17T05:50:29.205Z,12.93
2019-03-17T05:52:57.951Z,11.75
2019-03-17T05:55:27.094Z,10.85
2019-03-17T05:57:56.403Z,10.75
2019-03-17T06:00:25.230Z,11.43
2019-03-17T06:02:54.142Z,11.15
2019-03-17T06:05:22.896Z,10.70
2019-03-17T06:07:51.649Z,11.25
2019-03-17T06:10:20.305Z,10.88
2019-03-17T06:12:49.234Z,10.70
2019-03-17T06:15:18.082Z,9.78
2019-03-17T06:17:46.916Z,9.55
2019-03-17T06:20:16.764Z,10.23
2019-03-17T06:22:45.529Z,9.50
2019-03-17T06:25:14.772Z,9.08
2019-03-17T06:27:43.598Z,8.88
2019-03-17T06:30:13.139Z,10.08
2019-03-17T06:32:41.880Z,9.18
2019-03-17T06:35:11.693Z,9.10
2019-03-17T06:37:40.452Z,9.10
2019-03-17T06:40:10.654Z,8.63
2019-03-17T06:42:39.323Z,8.93
2019-03-17T06:45:08.984Z,8.03
2019-03-17T06:47:37.774Z,8.30
2019-03-17T06:50:10.931Z,8.03
2019-03-17T06:52:39.577Z,8.33
2019-03-17T06:55:09.984Z,8.63
2019-03-17T06:57:38.724Z,8.25
2019-03-17T07:00:11.156Z,7.78
2019-03-17T07:02:40.063Z,7.83
2019-03-17T07:05:09.329Z,7.80
2019-03-17T07:07:44.369Z,7.03
2019-03-17T07:10:10.079Z,7.30
2019-03-17T07:12:38.674Z,7.05
2019-03-17T07:15:08.759Z,7.55
2019-03-17T07:17:37.495Z,7.03
2019-03-17T07:20:08.241Z,6.78
2019-03-17T07:22:38.163Z,7.37
2019-03-17T07:25:08.432Z,6.15
2019-03-17T07:27:37.300Z,6.85
2019-03-17T07:30:15.422Z,6.42
2019-03-17T07:32:44.048Z,6.03
2019-03-17T07:35:12.886Z,5.80
2019-03-17T07:37:42.026Z,6.10
2019-03-17T07:40:11.526Z,5.80
2019-03-17T07:42:40.486Z,5.87
2019-03-17T07:45:09.964Z,5.67
2019-03-17T07:47:38.656Z,5.35
2019-03-17T07:50:11.475Z,5.72
2019-03-17T07:52:41.414Z,5.62
2019-03-17T07:55:10.844Z,5.83
2019-03-17T07:57:39.761Z,5.85
2019-03-17T08:00:09.932Z,5.70
2019-03-17T08:02:38.744Z,6.10
2019-03-17T08:05:08.317Z,6.10
2019-03-17T08:07:37.539Z,6.08
2019-03-17T08:10:08.983Z,6.00
2019-03-17T08:12:37.812Z,6.10
2019-03-17T08:15:08.351Z,6.30
2019-03-17T08:17:38.553Z,5.58
2019-03-17T08:20:08.651Z,5.37
2019-03-17T08:22:37.387Z,6.37
2019-03-17T08:25:07.285Z,5.62
2019-03-17T08:27:36.103Z,5.55
2019-03-17T08:30:06.604Z,5.42
2019-03-17T08:32:35.362Z,5.15
2019-03-17T08:35:05.694Z,5.10
2019-03-17T08:37:34.444Z,5.25
2019-03-17T08:40:03.453Z,4.90
2019-03-17T08:42:32.589Z,4.60
2019-03-17T08:45:01.685Z,5.15
2019-03-17T08:47:30.671Z,5.20
2019-03-17T08:49:59.910Z,5.78
2019-03-17T08:52:28.636Z,5.47
2019-03-17T08:54:57.573Z,4.92
2019-03-17T08:57:28.100Z,4.37
2019-03-17T08:59:56.647Z,3.98
2019-03-17T09:02:25.583Z,4.30
2019-03-17T09:04:54.470Z,4.85
2019-03-17T09:07:23.587Z,3.95
2019-03-17T09:09:52.304Z,3.77
2019-03-17T09:12:21.218Z,3.92
2019-03-17T09:14:50.282Z,3.85
2019-03-17T09:17:18.968Z,4.08
2019-03-17T09:19:47.971Z,3.98
2019-03-17T09:22:17.119Z,3.75
2019-03-17T09:24:45.861Z,4.05
2019-03-17T09:27:14.674Z,4.17
2019-03-17T09:29:43.540Z,4.72
2019-03-17T09:32:12.344Z,3.70
2019-03-17T09:34:41.093Z,3.80
2019-03-17T09:37:09.865Z,4.12
2019-03-17T09:39:38.494Z,4.50
2019-03-17T09:42:07.086Z,4.78
2019-03-17T09:44:37.752Z,4.30
2019-03-17T09:47:06.766Z,4.75
2019-03-17T09:49:35.721Z,4.70
2019-03-17T09:52:04.924Z,4.50
2019-03-17T09:54:33.874Z,5.00
2019-03-17T09:57:02.498Z,4.78
2019-03-17T09:59:31.429Z,4.87
2019-03-17T10:02:00.036Z,7.25
2019-03-17T10:04:29.084Z,4.87
2019-03-17T10:06:57.928Z,4.70
2019-03-17T10:09:26.932Z,5.35
2019-03-17T10:11:55.859Z,4.60
2019-03-17T10:14:24.702Z,4.40
2019-03-17T10:16:53.667Z,4.90
2019-03-17T10:19:22.610Z,5.72
2019-03-17T10:21:51.775Z,4.75
2019-03-17T10:24:20.495Z,4.58
2019-03-17T10:26:49.692Z,5.40
2019-03-17T10:29:18.363Z,5.22
2019-03-17T10:31:47.327Z,5.33
2019-03-17T10:34:17.481Z,4.85
2019-03-17T10:36:46.234Z,5.50
2019-03-17T10:39:14.857Z,5.05
2019-03-17T10:41:44.030Z,4.75
2019-03-17T10:44:13.038Z,5.08
2019-03-17T10:46:42.236Z,5.45
2019-03-17T10:49:11.346Z,4.78
2019-03-17T10:51:39.956Z,5.47
2019-03-17T10:54:09.171Z,4.95
2019-03-17T10:56:37.953Z,4.53
2019-03-17T10:59:06.917Z,5.00
2019-03-17T11:01:35.693Z,4.15
2019-03-17T11:04:04.894Z,3.98
2019-03-17T11:09:24.601Z,4.40
2019-03-17T11:11:46.305Z,4.12
2019-03-17T11:14:15.048Z,4.28
2019-03-17T11:16:43.847Z,4.22
2019-03-17T11:19:12.660Z,4.20
2019-03-17T11:21:41.525Z,4.62
2019-03-17T11:24:10.352Z,4.85
2019-03-17T11:26:39.303Z,5.20
2019-03-17T11:29:08.205Z,4.15
2019-03-17T11:31:37.272Z,4.37
2019-03-17T11:34:07.455Z,3.67
2019-03-17T11:36:36.485Z,3.60
2019-03-17T11:39:06.851Z,3.25
2019-03-17T11:41:35.577Z,4.80
2019-03-17T11:44:04.483Z,3.37
2019-03-17T11:46:33.567Z,3.30
2019-03-17T11:49:02.535Z,4.70
2019-03-17T11:51:31.217Z,3.42
2019-03-17T11:53:59.840Z,4.00
2019-03-17T11:56:28.690Z,3.30
2019-03-17T11:58:57.588Z,3.62
2019-03-17T12:01:26.850Z,3.40
2019-03-17T12:03:55.716Z,3.95
2019-03-17T12:06:24.469Z,3.55
2019-03-17T12:08:53.333Z,3.50
2019-03-17T12:11:22.560Z,3.25
2019-03-17T12:13:51.500Z,3.12
2019-03-17T12:16:20.081Z,3.30
2019-03-17T12:18:49.890Z,3.55
2019-03-17T12:21:18.589Z,5.62
2019-03-17T12:23:47.489Z,3.92
2019-03-17T12:26:16.295Z,3.02
2019-03-17T12:28:45.217Z,3.22
2019-03-17T12:31:14.254Z,3.08
2019-03-17T12:33:43.074Z,3.33
2019-03-17T12:36:11.681Z,3.27
2019-03-17T12:38:40.483Z,3.60
2019-03-17T12:41:09.074Z,3.27
2019-03-17T12:43:38.135Z,3.80
2019-03-17T12:46:06.828Z,4.55
2019-03-17T12:48:35.599Z,5.15
2019-03-17T12:51:05.246Z,18.05
2019-03-17T12:53:34.149Z,7.75
2019-03-17T12:56:03.119Z,6.85
2019-03-17T12:58:32.040Z,6.03
2019-03-17T13:01:00.754Z,8.33
2019-03-17T13:03:29.495Z,5.85
2019-03-17T13:05:58.442Z,26.35
2019-03-17T13:08:27.090Z,21.30
2019-03-17T13:10:55.774Z,4.80
2019-03-17T13:13:24.374Z,3.67
2019-03-17T13:15:53.074Z,10.45
2019-03-17T13:18:21.815Z,6.30
2019-03-17T13:20:50.649Z,3.52
2019-03-17T13:23:19.490Z,6.25
2019-03-17T13:25:51.142Z,3.67
2019-03-17T13:28:20.866Z,15.60
2019-03-17T13:30:49.821Z,22.02
2019-03-17T13:33:18.685Z,6.55
2019-03-17T13:35:47.601Z,3.60
2019-03-17T13:38:16.244Z,15.85
2019-03-17T13:40:44.914Z,3.67
2019-03-17T13:43:13.537Z,14.33
2019-03-17T13:45:42.317Z,4.62
2019-03-17T13:48:11.387Z,3.80
2019-03-17T13:50:40.335Z,3.85
2019-03-17T13:53:09.214Z,5.22
2019-03-17T13:55:37.794Z,4.70
2019-03-17T13:58:10.016Z,6.17
2019-03-17T14:00:38.958Z,8.98
2019-03-17T14:03:08.032Z,16.80
2019-03-17T14:05:36.938Z,8.13
2019-03-17T14:08:05.792Z,8.40
2019-03-17T14:10:40.926Z,15.53
2019-03-17T14:13:06.415Z,4.22
2019-03-17T14:15:35.329Z,15.32
2019-03-17T14:18:04.523Z,15.53
2019-03-17T14:20:33.331Z,3.50
2019-03-17T14:23:02.316Z,3.90
2019-03-17T14:25:31.886Z,50.23
2019-03-17T14:28:00.844Z,3.55
2019-03-17T14:30:29.783Z,3.12
2019-03-17T14:32:58.821Z,3.42
2019-03-17T14:35:27.534Z,4.42
2019-03-17T14:37:56.265Z,5.78
2019-03-17T14:40:25.302Z,16.60
2019-03-17T14:42:55.403Z,10.90
2019-03-17T14:45:24.823Z,4.37
2019-03-17T14:51:13.146Z,10.78
2019-03-17T14:53:47.712Z,45.20
2019-03-17T14:59:18.400Z,4.95
2019-03-17T15:01:47.329Z,15.70
2019-03-17T15:04:19.450Z,12.82
2019-03-17T15:06:51.100Z,12.90
2019-03-17T15:09:19.823Z,7.97
2019-03-17T15:11:50.260Z,3.40
2019-03-17T15:15:01.120Z,2.85
2019-03-17T15:17:24.959Z,3.70
2019-03-17T15:20:16.415Z,3.08
2019-03-17T15:22:50.214Z,4.53
2019-03-17T15:25:22.490Z,34.70
2019-03-17T15:27:57.429Z,20.75
2019-03-17T15:30:37.186Z,3.62
2019-03-17T15:33:25.981Z,8.43
2019-03-17T15:35:55.431Z,5.70
2019-03-17T15:38:31.329Z,8.30
2019-03-17T15:41:03.331Z,3.92
2019-03-17T15:43:37.504Z,4.75
2019-03-17T15:46:25.194Z,3.45
2019-03-17T15:52:02.628Z,3.10
2019-03-17T15:54:32.504Z,3.80
2019-03-17T15:57:05.056Z,2.83
2019-03-17T15:59:37.584Z,3.05
2019-03-17T16:02:15.149Z,2.77
2019-03-17T16:07:46.263Z,3.70
2019-03-17T16:10:24.901Z,4.00
2019-03-17T16:15:33.107Z,4.33
2019-03-17T16:18:16.093Z,3.75
2019-03-17T16:20:52.707Z,7.12
2019-03-17T16:23:27.424Z,4.75
2019-03-17T16:26:06.016Z,7.03
2019-03-17T16:28:35.033Z,7.67
2019-03-17T16:31:14.088Z,12.18
2019-03-17T16:33:48.700Z,6.78
2019-03-17T16:36:20.704Z,7.08
2019-03-17T16:38:53.884Z,8.33
2019-03-17T16:41:28.130Z,12.50
2019-03-17T16:43:57.268Z,8.68
2019-03-17T16:46:26.124Z,19.10
2019-03-17T16:48:54.985Z,14.13
2019-03-17T16:51:33.811Z,11.33
2019-03-17T16:54:03.131Z,7.75
2019-03-17T16:56:44.975Z,8.55
2019-03-17T16:59:05.083Z,7.50
2019-03-17T17:01:38.589Z,5.95
2019-03-17T17:04:07.552Z,6.25
2019-03-17T17:06:40.987Z,8.20
2019-03-17T17:09:11.231Z,11.05
2019-03-17T17:11:41.974Z,12.95
2019-03-17T17:14:10.918Z,20.40
2019-03-17T17:16:40.142Z,8.80
2019-03-17T17:19:09.111Z,4.50
2019-03-17T17:21:38.135Z,5.60
2019-03-17T17:24:07.069Z,5.60
2019-03-17T17:26:42.062Z,7.35
2019-03-17T17:29:13.976Z,22.62
2019-03-17T17:31:43.618Z,8.85
2019-03-17T17:34:12.602Z,4.37
2019-03-17T17:36:41.438Z,3.75
2019-03-17T17:39:10.555Z,5.33
2019-03-17T17:41:39.548Z,5.28
2019-03-17T17:44:08.488Z,8.83
2019-03-17T17:46:37.260Z,11.30
2019-03-17T17:49:06.367Z,9.60
2019-03-17T17:51:35.401Z,8.60
2019-03-17T17:54:06.876Z,8.38
2019-03-17T17:56:37.592Z,4.83
2019-03-17T17:59:06.851Z,5.85
2019-03-17T18:01:35.724Z,5.40
2019-03-17T18:04:04.544Z,4.92
2019-03-17T18:06:33.352Z,5.80
2019-03-17T18:09:02.233Z,7.90
2019-03-17T18:11:31.413Z,3.85
2019-03-17T18:14:00.434Z,3.95
2019-03-17T18:16:29.583Z,5.12
2019-03-17T18:19:00.080Z,5.08
2019-03-17T18:21:29.010Z,4.65
2019-03-17T18:23:57.716Z,4.87
2019-03-17T18:26:26.975Z,5.17
2019-03-17T18:28:55.910Z,5.97
2019-03-17T18:31:24.939Z,4.25
2019-03-17T18:33:53.632Z,2.67
2019-03-17T18:36:23.168Z,2.05
2019-03-17T18:38:53.126Z,1.95
2019-03-17T18:41:22.044Z,1.70
2019-03-17T18:43:50.937Z,1.77
2019-03-17T18:46:19.787Z,2.62
2019-03-17T18:48:51.741Z,1.92
2019-03-17T18:51:20.331Z,2.35
2019-03-17T18:53:49.132Z,2.75
2019-03-17T18:56:18.322Z,4.53
2019-03-17T18:58:47.311Z,3.40
2019-03-17T19:01:16.508Z,3.62
2019-03-17T19:03:45.614Z,5.03
2019-03-17T19:06:17.739Z,4.33
2019-03-17T19:08:48.171Z,5.60
2019-03-17T19:11:16.981Z,6.33
2019-03-17T19:13:47.307Z,5.62
2019-03-17T19:16:19.353Z,7.45
2019-03-17T19:18:48.162Z,7.42
2019-03-17T19:21:17.099Z,8.10
2019-03-17T19:23:45.986Z,7.28
2019-03-17T19:26:14.712Z,8.45
2019-03-17T19:28:43.598Z,11.20
2019-03-17T19:31:12.502Z,12.55
2019-03-17T19:33:41.370Z,10.65
2019-03-17T19:36:13.144Z,10.08
2019-03-17T19:38:43.488Z,8.50
2019-03-17T19:41:15.679Z,9.03
2019-03-17T19:43:45.894Z,8.05
2019-03-17T19:46:24.167Z,8.10
2019-03-17T19:48:53.134Z,9.13
2019-03-17T19:51:24.214Z,10.80
2019-03-17T19:53:55.850Z,15.32
2019-03-17T19:56:29.919Z,5.80
2019-03-17T19:59:04.605Z,4.42
2019-03-17T20:01:35.330Z,3.60
2019-03-17T20:04:07.195Z,3.02
2019-03-17T20:09:28.551Z,4.08
2019-03-17T20:12:06.999Z,6.60
2019-03-17T20:14:35.761Z,6.25
2019-03-17T20:17:04.503Z,9.60
2019-03-17T20:19:33.184Z,13.20
2019-03-17T20:22:02.286Z,60.55
2019-03-17T20:27:06.559Z,11.95
2019-03-17T20:29:35.326Z,6.75
2019-03-17T20:32:04.183Z,6.35
2019-03-17T20:34:35.557Z,4.42
2019-03-17T20:37:03.680Z,4.15
2019-03-17T20:39:37.097Z,9.05
2019-03-17T20:42:06.263Z,12.07
2019-03-17T20:44:35.065Z,6.87
2019-03-17T20:47:04.120Z,7.58
2019-03-17T20:49:34.482Z,14.80
2019-03-17T20:52:03.477Z,10.63
2019-03-17T20:54:33.886Z,8.65
2019-03-17T20:57:04.438Z,4.85
2019-03-17T20:59:33.373Z,5.22
2019-03-17T21:02:09.909Z,3.27
2019-03-17T21:05:00.904Z,2.25
2019-03-17T21:07:33.237Z,4.97
2019-03-17T21:10:02.183Z,14.15
2019-03-17T21:12:33.067Z,3.90
2019-03-17T21:15:03.060Z,4.03
2019-03-17T21:17:32.041Z,2.87
2019-03-17T21:20:04.441Z,5.22
2019-03-17T21:22:46.771Z,6.90
2019-03-17T21:25:32.735Z,5.35
2019-03-17T21:28:03.900Z,4.75
2019-03-17T21:30:36.271Z,7.08
2019-03-17T21:33:06.318Z,7.22
2019-03-17T21:35:36.860Z,7.37
2019-03-17T21:38:05.804Z,3.08
2019-03-17T21:41:01.686Z,3.22
2019-03-17T21:43:28.955Z,3.33
2019-03-17T21:45:55.063Z,4.22
2019-03-17T21:48:23.790Z,3.52
2019-03-17T21:50:52.564Z,3.20
2019-03-17T21:53:24.378Z,4.67
2019-03-17T21:55:54.294Z,4.00
2019-03-17T21:58:26.021Z,4.42
2019-03-17T22:01:02.160Z,4.92
2019-03-17T22:03:32.654Z,5.40
2019-03-17T22:06:03.452Z,5.12
2019-03-17T22:08:35.505Z,11.48
2019-03-17T22:13:35.893Z,9.48
2019-03-17T22:18:36.967Z,4.40
2019-03-17T22:21:07.533Z,5.40
2019-03-17T22:23:36.605Z,5.53
2019-03-17T22:26:05.873Z,4.70
2019-03-17T22:28:34.920Z,5.10
2019-03-17T22:31:04.007Z,5.40
2019-03-17T22:33:33.078Z,5.65
2019-03-17T22:36:03.975Z,6.53
2019-03-17T22:38:32.703Z,4.80
2019-03-17T22:41:01.753Z,5.53
2019-03-17T22:43:31.033Z,5.95
2019-03-17T22:45:59.855Z,6.25
2019-03-17T22:48:29.035Z,7.70
2019-03-17T22:50:57.990Z,7.47
2019-03-17T22:53:27.293Z,6.95
2019-03-17T22:55:56.350Z,6.78
2019-03-17T22:58:25.285Z,6.10
2019-03-17T23:00:54.622Z,7.65
2019-03-17T23:03:23.904Z,7.45
2019-03-17T23:05:54.123Z,5.78
2019-03-17T23:08:22.849Z,6.10
2019-03-17T23:10:52.029Z,6.97
2019-03-17T23:13:21.289Z,7.90
2019-03-17T23:15:50.998Z,10.50
2019-03-17T23:18:20.191Z,7.00
2019-03-17T23:20:49.467Z,8.48
2019-03-17T23:23:18.751Z,7.10
2019-03-17T23:25:47.653Z,7.00
2019-03-17T23:28:16.780Z,6.28
2019-03-17T23:30:46.242Z,32.03
2019-03-17T23:33:15.846Z,12.82
2019-03-17T23:35:44.824Z,6.03
2019-03-17T23:38:15.199Z,5.87
2019-03-17T23:40:44.318Z,6.60
2019-03-17T23:43:14.035Z,6.75
2019-03-17T23:45:43.361Z,6.90
2019-03-17T23:48:12.748Z,5.50
2019-03-17T23:50:41.905Z,7.78
2019-03-17T23:53:11.061Z,6.58
2019-03-17T23:55:40.150Z,6.25
2019-03-17T23:58:09.354Z,5.53
